Latest Weather Observations for Urandangi

IDQ60801

Issued at 5:32 pm EST Tuesday 28 February 2017 (issued every 30 minutes, with the page automatically refreshed every 10 minutes)

About weather observations | Map of weather stations | Latest weather observations for QLD | Other Formats
Station Details ID: 037058 Name: URANDANGI AERODROME Lat: -21.60 Lon: 138.37 Height: 178.6 m
Data from the previous 72 hours. | See also: Recent months at Urandangi
Date/Time
EST
Temp
°C
App
Temp
°C
Dew
Point
°C
Rel
Hum
%
Delta-T
°C
Wind Press
QNH
hPa
Press
MSL
hPa
Rain since
9am
mm
Dir  Spd
km/h
Gust
km/h
Spd
kts
Gust
kts
28/05:00pm 39.6 36.0 0.9 9 20.1 SSW 9 20 5 11 1007.1 1005.7 0.0
28/04:30pm 40.0 37.4 1.1 9 20.3 WNW 4 13 2 7 1007.4 1006.0 0.0
28/04:00pm 39.6 36.2 -0.8 8 20.5 SSW 7 22 4 12 1007.7 1006.3 0.0
28/03:30pm 39.4 36.2 0.7 9 20.0 SSE 7 15 4 8 1008.0 1006.7 0.0
28/03:00pm 39.8 35.3 -0.6 8 20.6 SSE 13 19 7 10 1008.3 1007.0 0.0
28/02:30pm 39.9 36.6 2.5 10 19.9 ENE 9 20 5 11 1008.5 1007.2 0.0
28/02:00pm 39.1 37.1 4.5 12 18.9 SW 4 9 2 5 1008.8 1007.5 0.0
28/01:30pm 38.2 35.7 5.0 13 18.2 NE 7 17 4 9 1009.3 1008.0 0.0
28/01:00pm 37.8 35.5 4.7 13 18.0 NE 6 13 3 7 1009.7 1008.4 0.0
28/12:30pm 37.6 34.8 3.4 12 18.2 NE 7 13 4 7 1009.9 1008.6 0.0
28/12:00pm 36.5 34.0 4.7 14 17.2 SE 7 13 4 7 1010.4 1009.1 0.0
28/11:30am 35.7 33.1 4.1 14 16.9 SE 7 13 4 7 1010.8 1009.5 0.0
28/11:00am 35.1 33.9 8.0 19 15.3 SSE 4 9 2 5 1011.0 1009.7 0.0
28/10:30am 33.9 32.4 8.5 21 14.4 SE 6 9 3 5 1011.3 1010.0 0.0
28/10:00am 32.1 31.8 11.3 28 12.2 SW 4 9 2 5 1011.4 1010.1 0.0
28/09:30am 30.5 31.1 14.2 37 9.9 SSW 4 7 2 4 1011.6 1010.3 0.0
28/09:00am 28.4 29.8 17.3 51 7.0 W 6 9 3 5 1011.6 1010.3 0.0
28/08:30am 26.0 27.3 17.6 60 5.3 WNW 7 9 4 5 1011.4 1010.1 0.0
28/08:00am 23.1 25.4 17.6 71 3.4 WSW 2 4 1 2 1011.2 1009.9 0.0
28/07:30am 20.7 22.5 17.3 81 2.1 W 4 6 2 3 1010.9 1009.6 0.0
28/07:00am 19.5 21.3 16.5 83 1.8 WNW 2 2 1 1 1010.7 1009.4 0.0
28/06:30am 19.8 21.4 17.0 84 1.7 WNW 4 6 2 3 1010.5 1009.2 0.0
28/06:00am 19.9 21.0 16.7 82 2.0 WNW 6 7 3 4 1010.4 1009.1 0.0
28/05:30am 20.6 21.5 17.6 83 1.9 NW 9 9 5 5 1010.3 1009.0 0.0
28/05:00am 19.7 21.0 17.1 85 1.6 NW 6 6 3 3 1010.0 1008.7 0.0
28/04:30am 19.5 20.5 16.9 85 1.6 WNW 7 7 4 4 1009.9 1008.6 0.0
28/04:00am 20.5 21.7 16.9 80 2.2 NNW 6 7 3 4 1009.9 1008.6 0.0
28/03:30am 21.6 23.1 17.6 78 2.5 N 6 9 3 5 1010.0 1008.7 0.0
28/03:00am 19.9 20.8 16.2 79 2.2 NE 6 9 3 5 1010.1 1008.8 0.0
28/02:30am 21.7 23.0 17.1 75 2.8 NNW 6 7 3 4 1010.2 1008.9 0.0
28/02:00am 22.4 23.5 16.7 70 3.5 NNW 6 7 3 4 1010.5 1009.2 0.0
28/01:30am 23.2 24.3 17.0 68 3.8 NW 7 9 4 5 1010.8 1009.5 0.0
28/01:00am 23.7 24.8 17.2 67 4.1 WNW 7 9 4 5 1010.8 1009.5 0.0
28/12:30am 24.4 25.7 16.1 60 5.1 NNE 4 6 2 3 1011.2 1009.9 0.0
28/12:00am 26.3 26.9 16.8 56 5.9 N 9 13 5 7 1011.0 1009.7 0.0
 
Date/Time
EST
Temp
°C
App
Temp
°C
Dew
Point
°C
Rel
Hum
%
Delta-T
°C
Wind Press
QNH
hPa
Press
MSL
hPa
Rain since
9am
mm
Dir  Spd
km/h
Gust
km/h
Spd
kts
Gust
kts
27/11:30pm 27.8 26.7 16.4 50 7.1 NNE 17 28 9 15 1011.0 1009.7 0.0
27/11:00pm 26.1 25.0 9.9 36 9.0 ENE 6 9 3 5 1010.4 1009.1 0.0
27/10:30pm 26.4 26.6 11.7 40 8.5 SE 2 4 1 2 1010.1 1008.8 0.0
27/10:00pm 26.5 26.0 10.6 37 9.0 ESE 4 4 2 2 1009.9 1008.6 0.0
27/09:30pm 28.2 27.2 10.4 33 10.1 SSE 6 6 3 3 1009.8 1008.5 0.0
27/09:00pm 27.9 26.5 8.7 30 10.6 SE 6 6 3 3 1009.5 1008.2 0.0
27/08:30pm 28.6 27.4 10.3 32 10.4 SE 7 9 4 5 1009.2 1007.9 0.0
27/08:00pm 29.6 28.3 9.2 28 11.5 SE 6 7 3 4 1008.9 1007.6 0.0
27/07:30pm 32.2 30.4 7.8 22 13.6 SSE 7 9 4 5 1008.4 1007.1 0.0
27/07:00pm 35.1 32.2 4.6 15 16.4 S 9 11 5 6 1008.0 1006.7 0.0
27/06:30pm 37.9 34.2 2.4 11 18.7 SSE 11 17 6 9 1007.9 1006.5 0.0
27/06:00pm 39.0 35.2 1.9 10 19.5 SE 11 19 6 10 1007.7 1006.3 0.0
27/05:30pm 39.4 36.1 2.2 10 19.7 SSE 9 19 5 10 1007.7 1006.3 0.0
27/05:00pm 39.8 35.5 1.0 9 20.2 SSE 13 20 7 11 1007.8 1006.4 0.0
27/04:30pm 40.1 35.4 1.2 9 20.3 SE 15 24 8 13 1007.9 1006.5 0.0
27/04:00pm 40.1 36.2 1.2 9 20.4 SE 11 24 6 13 1008.1 1006.8 0.0
27/03:30pm 39.7 36.1 0.9 9 20.1 S 9 19 5 10 1008.4 1007.1 0.0
27/03:00pm 39.4 36.8 5.9 13 18.7 SSW 9 19 5 10 1008.8 1007.5 0.0
27/02:30pm 38.5 35.8 7.3 15 17.7 SSW 11 19 6 10 1009.3 1008.0 0.0
27/02:00pm 37.7 35.1 7.6 16 17.1 S 11 22 6 12 1009.8 1008.5 0.0
27/01:30pm 38.2 35.7 8.0 16 17.3 SW 11 19 6 10 1010.3 1009.0 0.0
27/01:00pm 38.0 35.2 8.7 17 17.0 SSE 13 20 7 11 1010.7 1009.4 0.0
27/12:30pm 37.4 35.1 9.1 18 16.4 SSE 11 20 6 11 1011.0 1009.7 0.0
27/12:00pm 36.5 34.1 9.9 20 15.6 SSW 13 20 7 11 1011.3 1010.0 0.0
27/11:30am 36.5 34.4 11.3 22 15.1 SW 13 22 7 12 1011.4 1010.1 0.0
27/11:00am 35.1 33.1 11.5 24 14.1 SSW 13 20 7 11 1011.7 1010.4 0.0
27/10:30am 34.8 33.1 12.5 26 13.5 S 13 19 7 10 1011.9 1010.6 0.0
27/10:00am 32.9 30.4 10.9 26 12.9 SSW 15 22 8 12 1012.1 1010.7 0.0
27/09:30am 31.5 29.9 12.8 32 11.2 SSW 13 17 7 9 1012.2 1010.8 0.0
27/09:00am 30.2 28.7 14.3 38 9.7 S 15 17 8 9 1012.2 1010.8 0.0
27/08:30am 28.7 28.1 15.6 45 8.1 SSW 13 17 7 9 1012.1 1010.7 0.0
27/08:00am 27.7 28.3 16.9 51 6.8 SSW 9 13 5 7 1011.8 1010.5 0.0
27/07:30am 25.8 27.6 17.4 59 5.3 SSE 4 7 2 4 1011.6 1010.3 0.0
27/07:00am 24.0 25.4 16.3 62 4.7 ESE 4 4 2 2 1011.4 1010.1 0.0
27/06:30am 24.4 25.1 16.1 60 5.1 E 7 9 4 5 1011.2 1009.9 0.0
27/06:00am 25.5 25.4 16.1 56 5.8 E 11 15 6 8 1011.1 1009.8 0.0
27/05:30am 25.5 23.4 13.7 48 7.0 E 17 22 9 12 1010.7 1009.4 0.0
27/05:00am 22.9 20.1 8.6 40 7.7 ESE 13 15 7 8 1010.5 1009.2 0.0
27/04:30am 23.8 21.2 7.8 36 8.5 SSE 11 13 6 7 1009.9 1008.6 0.0
27/04:00am 25.2 23.2 6.9 31 9.7 S 7 9 4 5 1009.8 1008.5 0.0
27/03:30am 26.1 23.0 5.7 27 10.6 S 11 13 6 7 1009.8 1008.5 0.0
27/03:00am 26.4 22.7 6.4 28 10.5 S 15 17 8 9 1010.0 1008.7 0.0
27/02:30am 25.9 23.1 7.0 30 10.0 SSE 11 11 6 6 1010.2 1008.9 0.0
27/02:00am 27.7 24.4 6.5 26 11.3 SE 13 15 7 8 1010.5 1009.2 0.0
27/01:30am 27.9 24.6 6.6 26 11.3 SE 13 17 7 9 1010.5 1009.2 0.0
27/01:00am 29.9 26.1 5.9 22 12.8 ESE 15 19 8 10 1010.7 1009.4 0.0
27/12:30am 32.5 27.8 5.1 18 14.6 SE 19 26 10 14 1010.5 1009.2 0.0
27/12:17am 32.4 27.8 6.6 20 14.1 SSE 20 33 11 18 1010.5 1009.2 0.0
27/12:00am 27.4 25.8 11.4 37 9.2 SE 11 20 6 11 1010.7 1009.4 0.0
 
Date/Time
EST
Temp
°C
App
Temp
°C
Dew
Point
°C
Rel
Hum
%
Delta-T
°C
Wind Press
QNH
hPa
Press
MSL
hPa
Rain since
9am
mm
Dir  Spd
km/h
Gust
km/h
Spd
kts
Gust
kts
26/11:30pm 28.6 26.5 9.8 31 10.6 E 11 13 6 7 1010.3 1009.0 0.0
26/11:00pm 29.3 28.0 11.4 33 10.4 NE 9 15 5 8 1010.0 1008.7 0.0
26/10:30pm 29.4 28.6 11.0 32 10.6 SE 6 7 3 4 1009.7 1008.4 0.0
26/10:00pm 31.0 28.6 8.7 25 12.5 SSE 11 13 6 7 1009.4 1008.1 0.0
26/09:30pm 32.9 30.1 8.4 22 13.8 S 13 17 7 9 1009.1 1007.8 0.0
26/09:00pm 34.2 31.7 8.0 20 14.8 S 11 15 6 8 1008.6 1007.3 0.0
26/08:30pm 36.3 31.1 7.4 17 16.3 S 24 37 13 20 1008.4 1007.1 0.0
26/08:00pm 35.3 32.0 9.7 21 14.9 ESE 17 24 9 13 1008.2 1006.9 0.0
26/07:30pm 35.0 33.9 10.1 22 14.5 ENE 6 9 3 5 1007.8 1006.4 0.0
26/07:00pm 37.3 36.4 10.6 20 15.9 SSE 6 7 3 4 1007.4 1006.0 0.0
26/06:30pm 38.7 37.0 8.4 16 17.5 SE 7 11 4 6 1007.1 1005.7 0.0
26/06:00pm 39.2 36.2 7.8 15 18.1 SE 13 17 7 9 1007.0 1005.6 0.0
26/05:30pm 39.1 36.6 6.7 14 18.3 SSE 9 15 5 8 1007.0 1005.6 0.0
26/05:00pm 40.8 38.3 8.1 14 19.0 ESE 11 17 6 9 1006.8 1005.4 0.0
26/04:30pm 40.4 37.5 6.7 13 19.1 S 11 22 6 12 1007.0 1005.6 0.0
26/04:00pm 39.1 36.5 7.7 15 18.0 ESE 11 22 6 12 1007.1 1005.7 0.0
26/03:30pm 40.7 38.0 9.0 15 18.6 SSW 13 24 7 13 1007.3 1005.9 0.0
26/03:00pm 40.4 37.9 9.7 16 18.2 SSE 13 20 7 11 1007.6 1006.2 0.0
26/02:30pm 39.4 37.7 9.8 17 17.5 SSE 9 20 5 11 1008.0 1006.7 0.0
26/02:00pm 39.1 37.7 9.6 17 17.4 SSE 7 19 4 10 1008.4 1007.1 0.0
26/01:30pm 38.6 37.6 10.9 19 16.6 SW 7 17 4 9 1008.8 1007.5 0.0
26/01:00pm 37.9 37.1 11.1 20 16.1 SSW 6 13 3 7 1009.3 1008.0 0.0
26/12:30pm 37.4 36.3 10.7 20 15.9 SE 7 13 4 7 1010.0 1008.7 0.0
26/12:00pm 36.0 34.2 9.5 20 15.4 S 9 15 5 8 1010.2 1008.9 0.0
26/11:30am 35.3 33.7 8.9 20 15.1 SE 7 15 4 8 1010.7 1009.4 0.0
26/11:00am 34.6 32.1 8.4 20 14.9 SE 11 20 6 11 1010.8 1009.5 0.0
26/10:30am 33.3 30.0 8.0 21 14.2 SE 15 22 8 12 1011.2 1009.9 0.0
26/10:00am 32.2 28.1 7.8 22 13.6 SSE 19 24 10 13 1011.4 1010.1 0.0
26/09:30am 31.1 26.6 6.9 22 13.2 SE 20 26 11 14 1011.3 1010.0 0.0
26/09:00am 29.9 25.8 7.8 25 12.1 SE 19 26 10 14 1011.3 1010.0 0.0
26/08:30am 28.1 24.9 8.4 29 10.8 SSE 15 20 8 11 1011.3 1010.0 0.0
26/08:00am 25.9 24.6 10.1 37 8.8 SSE 7 11 4 6 1011.2 1009.9 0.0
26/07:30am 23.4 22.8 12.4 50 6.3 SSE 7 11 4 6 1010.9 1009.6 0.0
26/07:00am 22.4 22.0 12.4 53 5.7 SSE 6 7 3 4 1010.5 1009.2 0.0
26/06:30am 21.9 21.4 12.7 56 5.3 SSE 7 7 4 4 1010.3 1009.0 0.0
26/06:00am 22.4 22.1 13.2 56 5.3 S 7 9 4 5 1010.1 1008.8 0.0
26/05:30am 22.4 23.0 15.7 66 4.1 S 7 9 4 5 1009.9 1008.6 0.0
26/05:00am 23.0 23.5 15.1 61 4.7 SSE 6 6 3 3 1009.6 1008.3 0.0
26/04:30am 23.4 23.9 15.5 61 4.8 S 7 9 4 5 1009.4 1008.1 0.0
26/04:00am 23.8 24.7 16.1 62 4.7 SSE 6 6 3 3 1009.3 1008.0 0.0
26/03:30am 24.8 25.1 14.6 53 6.1 SE 6 6 3 3 1009.4 1008.1 0.0
26/03:00am 26.1 25.4 14.2 48 7.1 SE 11 11 6 6 1009.2 1007.9 0.0
26/02:30am 26.7 26.4 14.5 47 7.4 E 9 13 5 7 1009.3 1008.0 0.0
26/02:00am 28.1 28.0 14.0 42 8.5 SE 7 9 4 5 1009.2 1007.9 0.0
26/01:30am 27.3 27.3 16.3 51 6.8 SSW 11 15 6 8 1009.2 1007.9 0.0
26/01:00am 27.2 28.8 18.2 58 5.8 SSW 7 11 4 6 1009.3 1008.0 0.0
26/12:30am 27.3 29.4 18.9 60 5.4 SSW 6 7 3 4 1009.4 1008.1 0.0
26/12:00am 27.3 30.2 19.9 64 4.9 SE 4 7 2 4 1009.6 1008.3 0.0
 
Date/Time
EST
Temp
°C
App
Temp
°C
Dew
Point
°C
Rel
Hum
%
Delta-T
°C
Wind Press
QNH
hPa
Press
MSL
hPa
Rain since
9am
mm
Dir  Spd
km/h
Gust
km/h
Spd
kts
Gust
kts
25/11:30pm 29.3 30.4 17.2 48 7.7 E 7 9 4 5 1009.7 1008.4 0.0
25/11:00pm 28.9 31.1 18.4 53 6.8 ESE 4 6 2 3 1009.8 1008.5 0.0
25/10:30pm 28.5 29.5 16.4 48 7.6 S 6 7 3 4 1009.9 1008.6 0.0
25/10:00pm 28.4 30.0 17.9 53 6.7 SE 6 7 3 4 1009.7 1008.4 0.0
25/09:30pm 28.1 30.5 19.6 60 5.6 SE 6 6 3 3 1009.4 1008.1 0.0
25/09:00pm 28.6 30.0 17.8 52 6.9 ESE 7 11 4 6 1009.0 1007.7 0.0
25/08:30pm 30.1 31.1 16.9 45 8.4 SSE 7 9 4 5 1008.8 1007.5 0.0
25/08:00pm 30.8 30.9 15.6 39 9.5 SSE 9 9 5 5 1008.6 1007.3 0.0
25/07:30pm 32.7 32.7 14.3 32 11.3 SE 7 11 4 6 1008.3 1007.0 0.0
25/07:00pm 35.5 34.6 12.5 25 14.0 SE 9 11 5 6 1008.0 1006.7 0.0
25/06:30pm 38.1 35.4 10.5 19 16.4 ESE 15 22 8 12 1007.9 1006.5 0.0
25/06:00pm 39.1 36.7 11.3 19 16.8 SE 15 22 8 12 1007.9 1006.5 0.0

Other Formats:

Comma delimited format used in spreadsheet applications
http://www.bom.gov.au/fwo/IDQ60801/IDQ60801.94344.axf

JavaScript Object Notation format (JSON) in row-major order
http://www.bom.gov.au/fwo/IDQ60801/IDQ60801.94344.json